createdAt,value
2024-04-14T00:00:08.733Z,65.26
2024-04-14T00:02:44.450Z,65.21
2024-04-14T00:05:15.334Z,65.12
2024-04-14T00:07:47.141Z,65.12
2024-04-14T00:10:18.182Z,65.07
2024-04-14T00:12:50.000Z,65.12
2024-04-14T00:15:21.645Z,65.06
2024-04-14T00:17:53.540Z,65.02
2024-04-14T00:20:26.093Z,65.01
2024-04-14T00:22:58.300Z,65.15
2024-04-14T00:25:28.841Z,64.93
2024-04-14T00:28:00.761Z,64.71
2024-04-14T00:30:31.449Z,64.83
2024-04-14T00:33:03.717Z,64.74
2024-04-14T00:35:34.158Z,64.72
2024-04-14T00:38:06.081Z,64.89
2024-04-14T00:40:36.706Z,64.85
2024-04-14T00:43:08.676Z,64.83
2024-04-14T00:45:39.074Z,64.72
2024-04-14T00:48:11.206Z,64.74
2024-04-14T00:50:42.423Z,64.66
2024-04-14T00:53:14.392Z,64.46
2024-04-14T00:55:44.692Z,64.46
2024-04-14T00:58:16.553Z,64.30
2024-04-14T01:00:47.067Z,64.39
2024-04-14T01:03:19.084Z,64.52
2024-04-14T01:05:49.904Z,64.65
2024-04-14T01:08:21.808Z,64.84
2024-04-14T01:10:52.273Z,64.91
2024-04-14T01:13:24.255Z,65.04
2024-04-14T01:15:54.556Z,65.24
2024-04-14T01:18:26.806Z,65.38
2024-04-14T01:20:58.390Z,65.79
2024-04-14T01:23:30.236Z,65.87
2024-04-14T01:26:00.663Z,66.01
2024-04-14T01:28:32.556Z,66.19
2024-04-14T01:31:03.185Z,66.29
2024-04-14T01:33:35.473Z,66.28
2024-04-14T01:36:06.540Z,66.29
2024-04-14T01:38:38.445Z,66.29
2024-04-14T01:41:09.166Z,66.32
2024-04-14T01:43:41.233Z,66.32
2024-04-14T01:46:11.766Z,66.35
2024-04-14T01:48:43.760Z,66.29
2024-04-14T01:51:14.862Z,66.30
2024-04-14T01:53:46.625Z,66.27
2024-04-14T01:56:17.042Z,66.41
2024-04-14T01:58:48.604Z,66.56
2024-04-14T02:01:19.228Z,66.64
2024-04-14T02:03:51.286Z,66.80
2024-04-14T02:06:21.833Z,66.97
2024-04-14T02:08:53.789Z,67.10
2024-04-14T02:11:24.664Z,67.11
2024-04-14T02:13:57.964Z,67.07
2024-04-14T02:16:28.657Z,67.01
2024-04-14T02:19:00.598Z,67.11
2024-04-14T02:21:31.257Z,67.12
2024-04-14T02:24:02.793Z,67.26
2024-04-14T02:26:33.385Z,67.26
2024-04-14T02:29:04.884Z,67.36
2024-04-14T02:31:35.309Z,67.36
2024-04-14T02:34:06.865Z,67.53
2024-04-14T02:36:37.958Z,67.60
2024-04-14T02:39:09.783Z,67.71
2024-04-14T02:41:40.504Z,67.83
2024-04-14T02:44:13.746Z,68.06
2024-04-14T02:46:44.931Z,68.00
2024-04-14T02:49:16.488Z,68.02
2024-04-14T02:51:47.139Z,68.13
2024-04-14T02:54:18.787Z,68.24
2024-04-14T02:56:49.609Z,68.25
2024-04-14T02:59:21.677Z,68.21
2024-04-14T03:01:53.748Z,68.27
2024-04-14T03:04:26.038Z,68.37
2024-04-14T03:06:56.806Z,68.52
2024-04-14T03:09:28.726Z,68.62
2024-04-14T03:11:59.227Z,68.66
2024-04-14T03:14:31.297Z,68.76
2024-04-14T03:17:01.811Z,68.96
2024-04-14T03:19:33.480Z,69.03
2024-04-14T03:22:04.048Z,69.25
2024-04-14T03:24:35.836Z,69.42
2024-04-14T03:27:06.306Z,69.67
2024-04-14T03:29:37.942Z,69.84
2024-04-14T03:32:08.782Z,70.01
2024-04-14T03:34:40.436Z,70.21
2024-04-14T03:37:11.890Z,70.30
2024-04-14T03:39:43.860Z,70.40
2024-04-14T03:42:14.181Z,70.51
2024-04-14T03:44:48.287Z,70.78
2024-04-14T03:47:18.815Z,70.85
2024-04-14T03:49:50.778Z,70.87
2024-04-14T03:52:21.121Z,70.93
2024-04-14T03:54:52.811Z,70.96
2024-04-14T03:57:23.287Z,71.04
2024-04-14T03:59:55.859Z,71.17
2024-04-14T04:02:26.070Z,71.30
2024-04-14T04:04:57.897Z,71.31
2024-04-14T04:07:28.263Z,71.35
2024-04-14T04:10:00.432Z,71.48
2024-04-14T04:12:30.786Z,71.63
2024-04-14T04:15:02.528Z,71.72
2024-04-14T04:17:33.109Z,72.07
2024-04-14T04:20:06.668Z,72.24
2024-04-14T04:22:36.866Z,72.56
2024-04-14T04:25:09.153Z,72.54
2024-04-14T04:27:39.360Z,72.51
2024-04-14T04:30:11.601Z,72.52
2024-04-14T04:32:41.803Z,72.39
2024-04-14T04:35:13.705Z,72.13
2024-04-14T04:37:43.927Z,71.89
2024-04-14T04:40:15.684Z,71.71
2024-04-14T04:42:46.056Z,71.59
2024-04-14T04:45:17.720Z,71.42
2024-04-14T04:47:48.145Z,71.42
2024-04-14T04:50:19.867Z,71.47
2024-04-14T04:52:50.285Z,71.51
2024-04-14T04:55:21.830Z,71.55
2024-04-14T04:57:52.196Z,71.58
2024-04-14T05:00:23.967Z,71.41
2024-04-14T05:02:54.464Z,71.19
2024-04-14T05:05:26.197Z,70.97
2024-04-14T05:07:56.615Z,70.75
2024-04-14T05:10:30.358Z,70.41
2024-04-14T05:13:04.629Z,70.26
2024-04-14T05:15:35.100Z,70.05
2024-04-14T05:18:07.016Z,69.78
2024-04-14T05:20:37.354Z,69.67
2024-04-14T05:23:11.968Z,69.59
2024-04-14T05:25:45.182Z,69.49
2024-04-14T05:28:15.902Z,69.36
2024-04-14T05:30:47.903Z,68.88
2024-04-14T05:33:18.640Z,68.74
2024-04-14T05:35:56.443Z,68.54
2024-04-14T05:38:28.060Z,68.41
2024-04-14T05:40:58.178Z,68.37
2024-04-14T05:43:30.034Z,68.28
2024-04-14T05:46:02.980Z,68.06
2024-04-14T05:48:34.863Z,67.91
2024-04-14T05:51:05.755Z,67.38
2024-04-14T05:53:37.366Z,66.85
2024-04-14T05:56:08.106Z,66.49
2024-04-14T05:58:39.757Z,66.20
2024-04-14T06:01:10.290Z,65.69
2024-04-14T06:03:42.354Z,65.60
2024-04-14T06:06:12.904Z,65.66
2024-04-14T06:08:44.436Z,64.78
2024-04-14T06:11:15.017Z,64.15
2024-04-14T06:13:46.719Z,64.01
2024-04-14T06:16:17.627Z,63.42
2024-04-14T06:18:50.009Z,62.97
2024-04-14T06:21:20.361Z,62.52
2024-04-14T06:23:52.020Z,62.19
2024-04-14T06:26:22.233Z,61.59
2024-04-14T06:28:53.881Z,61.50
2024-04-14T06:31:24.309Z,61.13
2024-04-14T06:33:55.715Z,60.86
2024-04-14T06:36:26.213Z,60.10
2024-04-14T06:38:58.607Z,59.12
2024-04-14T06:41:28.993Z,58.17
2024-04-14T06:44:00.755Z,57.24
2024-04-14T06:46:31.284Z,56.78
2024-04-14T06:49:03.379Z,56.96
2024-04-14T06:51:34.103Z,56.99
2024-04-14T06:54:05.944Z,56.43
2024-04-14T06:56:36.995Z,56.91
2024-04-14T06:59:09.044Z,56.66
2024-04-14T07:01:39.522Z,56.44
2024-04-14T07:04:11.235Z,55.19
2024-04-14T07:06:41.994Z,54.73
2024-04-14T07:09:13.811Z,53.65
2024-04-14T07:11:44.215Z,53.32
2024-04-14T07:14:16.003Z,52.54
2024-04-14T07:16:46.833Z,51.98
2024-04-14T07:19:18.241Z,51.87
2024-04-14T07:21:49.579Z,51.22
2024-04-14T07:24:20.978Z,51.29
2024-04-14T07:26:51.510Z,51.44
2024-04-14T07:29:23.283Z,50.72
2024-04-14T07:31:53.789Z,50.70
2024-04-14T07:34:25.348Z,50.96
2024-04-14T07:36:57.873Z,50.24
2024-04-14T07:39:29.725Z,49.68
2024-04-14T07:42:01.990Z,49.15
2024-04-14T07:44:33.397Z,48.54
2024-04-14T07:47:03.936Z,47.98
2024-04-14T07:49:37.503Z,48.11
2024-04-14T07:52:07.902Z,48.76
2024-04-14T07:54:39.547Z,47.79
2024-04-14T07:57:10.871Z,47.00
2024-04-14T07:59:44.608Z,46.88
2024-04-14T08:02:18.675Z,47.60
2024-04-14T08:04:49.247Z,47.13
2024-04-14T08:07:21.269Z,46.90
2024-04-14T08:09:51.834Z,46.43
2024-04-14T08:12:24.807Z,46.00
2024-04-14T08:14:55.312Z,45.28
2024-04-14T08:17:26.870Z,45.23
2024-04-14T08:19:57.299Z,45.07
2024-04-14T08:22:29.667Z,45.00
2024-04-14T08:25:00.233Z,44.97
2024-04-14T08:27:32.328Z,44.81
2024-04-14T08:30:03.107Z,44.74
2024-04-14T08:32:35.076Z,44.68
2024-04-14T08:35:05.980Z,44.29
2024-04-14T08:37:37.551Z,44.71
2024-04-14T08:40:08.204Z,44.00
2024-04-14T08:42:39.861Z,43.74
2024-04-14T08:45:11.033Z,44.00
2024-04-14T08:47:42.432Z,43.53
2024-04-14T08:50:14.043Z,43.72
2024-04-14T08:52:45.529Z,44.00
2024-04-14T08:55:16.165Z,44.29
2024-04-14T08:57:47.661Z,43.68
2024-04-14T09:00:19.692Z,44.00
2024-04-14T09:02:51.139Z,44.25
2024-04-14T09:05:23.248Z,44.04
2024-04-14T09:07:58.434Z,43.50
2024-04-14T09:10:31.212Z,42.92
2024-04-14T09:13:02.452Z,42.67
2024-04-14T09:15:42.159Z,42.88
2024-04-14T09:18:14.259Z,42.95
2024-04-14T09:20:44.807Z,41.87
2024-04-14T09:23:16.352Z,42.06
2024-04-14T09:25:46.769Z,42.56
2024-04-14T09:28:18.231Z,42.82
2024-04-14T09:30:49.296Z,42.12
2024-04-14T09:33:20.821Z,42.11
2024-04-14T09:35:51.649Z,41.63
2024-04-14T09:38:23.312Z,41.26
2024-04-14T09:40:53.729Z,41.13
2024-04-14T09:43:25.297Z,40.91
2024-04-14T09:45:55.448Z,40.34
2024-04-14T09:48:27.272Z,40.34
2024-04-14T09:50:57.391Z,40.11
2024-04-14T09:53:33.307Z,39.76
2024-04-14T09:56:05.311Z,39.78
2024-04-14T09:58:35.728Z,39.54
2024-04-14T10:01:08.080Z,39.01
2024-04-14T10:03:38.828Z,38.27
2024-04-14T10:06:11.270Z,38.64
2024-04-14T10:08:41.646Z,38.72
2024-04-14T10:11:13.426Z,38.50
2024-04-14T10:13:47.716Z,37.83
2024-04-14T10:16:20.112Z,37.38
2024-04-14T10:18:51.804Z,36.66
2024-04-14T10:21:24.080Z,37.37
2024-04-14T10:23:56.247Z,36.75
2024-04-14T10:26:27.932Z,36.85
2024-04-14T10:28:58.364Z,35.91
2024-04-14T10:31:34.943Z,36.01
2024-04-14T10:34:07.301Z,36.52
2024-04-14T10:36:38.702Z,36.49
2024-04-14T10:39:12.039Z,37.29
2024-04-14T10:41:42.481Z,38.03
2024-04-14T10:44:20.146Z,38.06
2024-04-14T10:46:51.688Z,37.20
2024-04-14T10:49:22.771Z,36.90
2024-04-14T10:51:54.368Z,37.36
2024-04-14T10:54:24.938Z,37.56
2024-04-14T10:56:56.396Z,36.84
2024-04-14T10:59:27.020Z,35.97
2024-04-14T11:02:01.254Z,35.10
2024-04-14T11:04:32.254Z,35.70
2024-04-14T11:07:04.086Z,36.41
2024-04-14T11:09:34.737Z,37.13
2024-04-14T11:12:06.841Z,37.46
2024-04-14T11:14:37.267Z,38.27
2024-04-14T11:17:11.489Z,38.42
2024-04-14T11:19:42.046Z,38.83
2024-04-14T11:22:19.668Z,38.81
2024-04-14T11:24:52.892Z,38.57
2024-04-14T11:27:28.198Z,39.22
2024-04-14T11:29:59.602Z,39.60
2024-04-14T11:32:37.619Z,38.62
2024-04-14T11:35:10.642Z,39.35
2024-04-14T11:37:46.121Z,39.46
2024-04-14T11:40:20.278Z,40.15
2024-04-14T11:42:50.842Z,41.01
2024-04-14T11:45:22.631Z,41.11
2024-04-14T11:47:53.087Z,41.13
2024-04-14T11:50:25.949Z,41.24
2024-04-14T11:52:56.971Z,41.29
2024-04-14T11:55:28.432Z,41.81
2024-04-14T11:57:59.005Z,42.14
2024-04-14T12:00:30.516Z,42.47
2024-04-14T12:03:01.202Z,42.07
2024-04-14T12:05:32.895Z,41.86
2024-04-14T12:08:03.537Z,41.94
2024-04-14T12:10:34.974Z,41.73
2024-04-14T12:13:05.840Z,40.02
2024-04-14T12:15:37.772Z,39.65
2024-04-14T12:18:11.258Z,38.18
2024-04-14T12:20:43.448Z,34.88
2024-04-14T12:23:14.300Z,31.89
2024-04-14T12:25:45.860Z,30.34
2024-04-14T12:28:16.261Z,28.98
2024-04-14T12:30:51.905Z,29.64
2024-04-14T12:33:24.343Z,31.30
2024-04-14T12:35:56.752Z,32.43
2024-04-14T12:38:29.119Z,33.49
2024-04-14T12:40:59.363Z,34.52
2024-04-14T12:43:31.108Z,35.48
2024-04-14T12:46:01.919Z,36.83
2024-04-14T12:48:34.113Z,37.81
2024-04-14T12:51:04.636Z,38.22
2024-04-14T12:53:37.024Z,38.73
2024-04-14T12:56:07.837Z,39.35
2024-04-14T12:58:39.179Z,40.30
2024-04-14T13:01:09.682Z,41.76
2024-04-14T13:03:41.416Z,42.75
2024-04-14T13:06:12.026Z,42.96
2024-04-14T13:08:43.747Z,43.50
2024-04-14T13:11:14.380Z,43.95
2024-04-14T13:13:46.047Z,44.75
2024-04-14T13:16:16.906Z,45.89
2024-04-14T13:18:48.487Z,46.64
2024-04-14T13:21:19.271Z,47.56
2024-04-14T13:23:50.740Z,47.92
2024-04-14T13:26:21.668Z,48.22
2024-04-14T13:28:53.209Z,48.94
2024-04-14T13:31:23.944Z,49.04
2024-04-14T13:33:55.571Z,49.66
2024-04-14T13:36:26.128Z,52.45
2024-04-14T13:38:57.589Z,54.08
2024-04-14T13:41:28.104Z,54.32
2024-04-14T13:43:59.560Z,52.77
2024-04-14T13:46:29.990Z,50.47
2024-04-14T13:49:01.648Z,50.16
2024-04-14T13:51:32.620Z,48.77
2024-04-14T13:54:05.823Z,47.06
2024-04-14T13:56:36.374Z,46.89
2024-04-14T13:59:08.471Z,47.84
2024-04-14T14:01:39.080Z,48.56
2024-04-14T14:04:11.161Z,49.13
2024-04-14T14:06:42.225Z,49.19
2024-04-14T14:09:13.968Z,46.08
2024-04-14T14:11:44.381Z,45.31
2024-04-14T14:14:16.259Z,45.47
2024-04-14T14:16:47.130Z,44.99
2024-04-14T14:19:18.743Z,44.24
2024-04-14T14:21:49.210Z,42.39
2024-04-14T14:24:20.837Z,40.24
2024-04-14T14:26:52.064Z,39.24
2024-04-14T14:29:23.618Z,39.49
2024-04-14T14:31:54.759Z,39.88
2024-04-14T14:34:45.063Z,40.83
2024-04-14T14:37:16.729Z,41.34
2024-04-14T14:39:47.354Z,41.69
2024-04-14T14:42:20.798Z,41.50
2024-04-14T14:44:51.261Z,40.02
2024-04-14T14:47:23.043Z,37.71
2024-04-14T14:49:53.631Z,36.90
2024-04-14T14:52:25.099Z,36.51
2024-04-14T14:54:55.569Z,37.01
2024-04-14T14:57:27.281Z,37.07
2024-04-14T14:59:57.709Z,36.19
2024-04-14T15:02:29.821Z,34.79
2024-04-14T15:05:00.516Z,34.88
2024-04-14T15:07:32.578Z,34.94
2024-04-14T15:10:03.270Z,35.66
2024-04-14T15:12:36.925Z,36.72
2024-04-14T15:15:08.034Z,37.61
2024-04-14T15:17:39.730Z,38.08
2024-04-14T15:20:10.234Z,38.63
2024-04-14T15:22:41.884Z,39.86
2024-04-14T15:25:12.169Z,41.18
2024-04-14T15:27:43.917Z,40.93
2024-04-14T15:30:14.606Z,40.68
2024-04-14T15:32:47.226Z,40.92
2024-04-14T15:35:17.606Z,41.15
2024-04-14T15:37:50.604Z,40.98
2024-04-14T15:40:20.832Z,41.12
2024-04-14T15:42:52.411Z,41.39
2024-04-14T15:45:22.696Z,40.93
2024-04-14T15:47:54.666Z,40.57
2024-04-14T15:50:24.894Z,40.13
2024-04-14T15:52:56.653Z,38.91
2024-04-14T15:55:27.162Z,37.51
2024-04-14T15:57:59.030Z,38.03
2024-04-14T16:00:29.176Z,38.79
2024-04-14T16:03:00.950Z,39.32
2024-04-14T16:05:31.855Z,39.92
2024-04-14T16:08:04.012Z,40.17
2024-04-14T16:10:34.330Z,40.58
2024-04-14T16:13:06.455Z,40.85
2024-04-14T16:15:37.064Z,41.32
2024-04-14T16:18:08.740Z,40.97
2024-04-14T16:20:39.414Z,41.28
2024-04-14T16:23:11.473Z,41.52
2024-04-14T16:25:41.905Z,41.02
2024-04-14T16:28:14.284Z,40.58
2024-04-14T16:30:44.808Z,40.49
2024-04-14T16:33:16.516Z,40.33
2024-04-14T16:35:47.020Z,40.50
2024-04-14T16:38:18.842Z,41.37
2024-04-14T16:40:49.479Z,41.70
2024-04-14T16:43:21.536Z,41.29
2024-04-14T16:45:51.992Z,41.39
2024-04-14T16:48:24.437Z,42.29
2024-04-14T16:50:55.383Z,42.72
2024-04-14T16:53:27.032Z,42.69
2024-04-14T16:55:57.526Z,43.10
2024-04-14T16:58:29.533Z,42.95
2024-04-14T17:01:00.038Z,43.46
2024-04-14T17:03:31.886Z,43.32
2024-04-14T17:06:03.067Z,43.45
2024-04-14T17:08:34.932Z,42.77
2024-04-14T17:11:05.276Z,42.08
2024-04-14T17:13:37.100Z,41.70
2024-04-14T17:16:07.506Z,41.64
2024-04-14T17:18:39.304Z,41.71
2024-04-14T17:21:09.726Z,41.89
2024-04-14T17:23:41.488Z,41.82
2024-04-14T17:26:12.010Z,41.92
2024-04-14T17:28:43.477Z,42.02
2024-04-14T17:31:14.241Z,42.16
2024-04-14T17:33:45.748Z,42.17
2024-04-14T17:36:16.072Z,42.42
2024-04-14T17:38:47.711Z,42.88
2024-04-14T17:41:18.142Z,43.02
2024-04-14T17:43:49.689Z,43.24
2024-04-14T17:46:20.277Z,43.58
2024-04-14T17:48:52.003Z,43.54
2024-04-14T17:51:22.303Z,43.80
2024-04-14T17:53:53.857Z,43.93
2024-04-14T17:56:24.182Z,44.26
2024-04-14T17:58:55.635Z,44.50
2024-04-14T18:01:26.108Z,44.71
2024-04-14T18:04:01.538Z,44.93
2024-04-14T18:06:33.258Z,45.23
2024-04-14T18:09:03.811Z,45.50
2024-04-14T18:11:35.628Z,45.92
2024-04-14T18:14:06.452Z,46.11
2024-04-14T18:16:38.046Z,46.42
2024-04-14T18:19:09.327Z,46.62
2024-04-14T18:21:40.958Z,46.67
2024-04-14T18:24:11.372Z,46.90
2024-04-14T18:26:43.125Z,47.10
2024-04-14T18:29:13.853Z,47.43
2024-04-14T18:31:45.516Z,48.09
2024-04-14T18:34:16.033Z,48.69
2024-04-14T18:36:48.172Z,48.93
2024-04-14T18:39:18.635Z,49.35
2024-04-14T18:41:50.298Z,50.56
2024-04-14T18:44:20.712Z,50.52
2024-04-14T18:46:52.368Z,51.02
2024-04-14T18:49:22.822Z,51.32
2024-04-14T18:51:54.383Z,52.24
2024-04-14T18:54:24.991Z,55.14
2024-04-14T18:56:57.684Z,56.96
2024-04-14T18:59:28.196Z,57.82
2024-04-14T19:01:59.979Z,58.69
2024-04-14T19:04:30.761Z,59.80
2024-04-14T19:07:02.876Z,61.62
2024-04-14T19:09:33.477Z,62.09
2024-04-14T19:12:05.755Z,63.75
2024-04-14T19:14:36.588Z,66.31
2024-04-14T19:17:09.818Z,66.93
2024-04-14T19:19:40.411Z,66.35
2024-04-14T19:22:12.083Z,65.18
2024-04-14T19:24:42.826Z,64.60
2024-04-14T19:27:14.565Z,64.53
2024-04-14T19:29:44.989Z,63.74
2024-04-14T19:32:16.684Z,66.59
2024-04-14T19:34:47.164Z,67.87
2024-04-14T19:37:18.743Z,68.52
2024-04-14T19:39:49.698Z,69.78
2024-04-14T19:42:21.312Z,69.89
2024-04-14T19:44:51.843Z,70.23
2024-04-14T19:47:23.704Z,71.17
2024-04-14T19:49:54.336Z,70.49
2024-04-14T19:52:26.279Z,70.44
2024-04-14T19:54:57.083Z,72.22
2024-04-14T19:57:29.491Z,73.50
2024-04-14T20:00:00.031Z,73.93
2024-04-14T20:02:31.802Z,72.76
2024-04-14T20:05:02.307Z,71.83
2024-04-14T20:07:33.757Z,71.92
2024-04-14T20:10:04.647Z,72.45
2024-04-14T20:12:36.405Z,72.43
2024-04-14T20:15:06.891Z,71.97
2024-04-14T20:17:38.741Z,71.71
2024-04-14T20:20:09.884Z,71.41
2024-04-14T20:22:41.622Z,70.68
2024-04-14T20:25:12.163Z,70.80
2024-04-14T20:27:44.274Z,71.07
2024-04-14T20:30:14.764Z,70.60
2024-04-14T20:32:46.415Z,71.43
2024-04-14T20:35:17.090Z,71.94
2024-04-14T20:37:48.606Z,72.13
2024-04-14T20:40:19.183Z,71.71
2024-04-14T20:42:50.749Z,72.06
2024-04-14T20:45:21.640Z,73.04
2024-04-14T20:47:53.453Z,73.36
2024-04-14T20:50:23.935Z,73.38
2024-04-14T20:52:57.945Z,73.49
2024-04-14T20:55:28.365Z,73.59
2024-04-14T20:58:03.528Z,75.06
2024-04-14T21:00:42.176Z,75.18
2024-04-14T21:03:14.003Z,74.66
2024-04-14T21:05:47.385Z,74.02
2024-04-14T21:08:19.023Z,73.95
2024-04-14T21:10:49.864Z,74.45
2024-04-14T21:13:21.509Z,73.81
2024-04-14T21:15:52.264Z,73.57
2024-04-14T21:18:24.407Z,73.64
2024-04-14T21:20:55.305Z,73.12
2024-04-14T21:23:26.894Z,72.12
2024-04-14T21:26:03.790Z,72.23
2024-04-14T21:28:37.988Z,72.51
2024-04-14T21:31:10.768Z,72.27
2024-04-14T21:33:41.136Z,72.53
2024-04-14T21:36:12.963Z,73.08
2024-04-14T21:38:43.184Z,72.73
2024-04-14T21:41:15.235Z,72.15
2024-04-14T21:43:46.839Z,71.42
2024-04-14T21:46:18.688Z,71.19
2024-04-14T21:48:48.797Z,70.63
2024-04-14T21:51:20.847Z,70.03
2024-04-14T21:53:51.262Z,70.08
2024-04-14T21:56:23.122Z,70.49
2024-04-14T21:58:53.348Z,69.82
2024-04-14T22:01:25.381Z,69.72
2024-04-14T22:04:05.269Z,69.82
2024-04-14T22:06:45.524Z,69.68
2024-04-14T22:09:16.161Z,69.90
2024-04-14T22:11:47.915Z,70.63
2024-04-14T22:14:19.575Z,71.16
2024-04-14T22:16:51.359Z,71.52
2024-04-14T22:19:21.658Z,71.17
2024-04-14T22:21:53.439Z,70.71
2024-04-14T22:24:23.853Z,70.36
2024-04-14T22:26:55.484Z,70.33
2024-04-14T22:29:26.115Z,70.63
2024-04-14T22:31:57.655Z,70.76
2024-04-14T22:34:28.204Z,71.23
2024-04-14T22:36:59.786Z,71.80
2024-04-14T22:39:30.991Z,72.45
2024-04-14T22:42:02.444Z,73.29
2024-04-14T22:44:32.870Z,73.93
2024-04-14T22:47:04.973Z,73.92
2024-04-14T22:49:35.872Z,73.79
2024-04-14T22:52:07.334Z,73.74
2024-04-14T22:54:37.619Z,73.84
2024-04-14T22:57:09.201Z,74.19
2024-04-14T22:59:39.524Z,74.37
2024-04-14T23:02:11.074Z,74.28
2024-04-14T23:04:41.611Z,74.95
2024-04-14T23:07:13.166Z,75.45
2024-04-14T23:09:43.723Z,75.67
2024-04-14T23:12:15.446Z,75.59
2024-04-14T23:14:46.298Z,75.59
2024-04-14T23:17:17.938Z,75.95
2024-04-14T23:19:49.691Z,76.10
2024-04-14T23:22:21.372Z,76.35
2024-04-14T23:24:51.885Z,76.83
2024-04-14T23:27:23.532Z,77.45
2024-04-14T23:29:53.749Z,78.01
2024-04-14T23:32:25.594Z,78.71
2024-04-14T23:35:00.954Z,79.52
2024-04-14T23:37:31.281Z,80.28
2024-04-14T23:40:04.098Z,81.30
2024-04-14T23:42:34.642Z,81.87
2024-04-14T23:45:06.545Z,82.22
2024-04-14T23:47:36.918Z,82.46
2024-04-14T23:50:08.932Z,82.31
2024-04-14T23:52:39.373Z,82.30
2024-04-14T23:55:10.970Z,82.04
2024-04-14T23:57:42.453Z,81.89
